New Cypress, Kentucky
Current Conditions -  °F | °C
As of 7:35 AM on Saturday 01 Nov 2014 (Local Time) from KUCY Reporting Station
Clear Clear  
Wind Chill: 23°   Ceiling: Unl
Heat Index: 30°   Visibility: 10mi
Dew Point: 23°   Wind: 8mph
Humidity: 75%   Direction: 330°NNW
Pressure: 30.35"   Gusts: NA
Location:  36.6807°N, 88.9572°W
Report Text: KUCY 011235Z AUTO 33007KT 10SM CLR M01/M05 A3035 RMK
Loading
Personal Weather Stations






























Interactive Weather Map
Tropical Storm Tracking
New forecast layout! Learn more

10-Day Weather Forecast

Advertisements
Track Severe Weather on mobile